sensor_id;sensor_type;location;lat;lon;timestamp;pressure;altitude;pressure_sealevel;temperature;humidity
71966;BME280;59836;52.132;5.442;2024-01-30T00:01:31;102627.00;;;7.72;100.00
71966;BME280;59836;52.132;5.442;2024-01-30T00:03:58;102630.75;;;7.71;100.00
71966;BME280;59836;52.132;5.442;2024-01-30T00:06:24;102626.38;;;7.70;100.00
71966;BME280;59836;52.132;5.442;2024-01-30T00:08:51;102632.81;;;7.68;100.00
71966;BME280;59836;52.132;5.442;2024-01-30T00:11:17;102638.22;;;7.68;100.00
71966;BME280;59836;52.132;5.442;2024-01-30T00:13:44;102633.84;;;7.67;100.00
71966;BME280;59836;52.132;5.442;2024-01-30T00:16:23;102631.97;;;7.68;100.00
71966;BME280;59836;52.132;5.442;2024-01-30T00:18:53;102636.56;;;7.67;100.00
71966;BME280;59836;52.132;5.442;2024-01-30T00:21:20;102632.19;;;7.66;100.00
71966;BME280;59836;52.132;5.442;2024-01-30T00:23:47;102634.91;;;7.66;100.00
71966;BME280;59836;52.132;5.442;2024-01-30T00:26:14;102631.56;;;7.64;100.00
71966;BME280;59836;52.132;5.442;2024-01-30T00:28:43;102631.56;;;7.64;100.00
71966;BME280;59836;52.132;5.442;2024-01-30T00:31:10;102629.91;;;7.63;100.00
71966;BME280;59836;52.132;5.442;2024-01-30T00:33:40;102633.63;;;7.62;100.00
71966;BME280;59836;52.132;5.442;2024-01-30T00:36:08;102627.63;;;7.60;100.00
71966;BME280;59836;52.132;5.442;2024-01-30T00:38:35;102629.47;;;7.60;100.00
71966;BME280;59836;52.132;5.442;2024-01-30T00:41:02;102626.97;;;7.58;100.00
71966;BME280;59836;52.132;5.442;2024-01-30T00:43:29;102625.94;;;7.59;100.00
71966;BME280;59836;52.132;5.442;2024-01-30T00:45:55;102623.25;;;7.59;100.00
71966;BME280;59836;52.132;5.442;2024-01-30T00:48:22;102619.91;;;7.57;100.00
71966;BME280;59836;52.132;5.442;2024-01-30T00:50:49;102626.13;;;7.58;100.00
71966;BME280;59836;52.132;5.442;2024-01-30T00:53:16;102631.53;;;7.58;100.00
71966;BME280;59836;52.132;5.442;2024-01-30T00:55:43;102627.19;;;7.57;100.00
71966;BME280;59836;52.132;5.442;2024-01-30T00:58:09;102622.81;;;7.56;100.00
71966;BME280;59836;52.132;5.442;2024-01-30T01:00:36;102624.47;;;7.57;100.00
71966;BME280;59836;52.132;5.442;2024-01-30T01:03:03;102618.44;;;7.54;100.00
71966;BME280;59836;52.132;5.442;2024-01-30T01:05:30;102621.38;;;7.53;100.00
71966;BME280;59836;52.132;5.442;2024-01-30T01:07:56;102618.66;;;7.53;100.00
71966;BME280;59836;52.132;5.442;2024-01-30T01:10:23;102614.31;;;7.52;100.00
71966;BME280;59836;52.132;5.442;2024-01-30T01:12:50;102618.03;;;7.51;100.00
71966;BME280;59836;52.132;5.442;2024-01-30T01:15:16;102621.97;;;7.48;100.00
71966;BME280;59836;52.132;5.442;2024-01-30T01:17:43;102609.50;;;7.47;100.00
71966;BME280;59836;52.132;5.442;2024-01-30T01:20:09;102613.47;;;7.45;100.00
71966;BME280;59836;52.132;5.442;2024-01-30T01:22:37;102606.41;;;7.44;100.00
71966;BME280;59836;52.132;5.442;2024-01-30T01:25:06;102607.44;;;7.43;100.00
71966;BME280;59836;52.132;5.442;2024-01-30T01:27:36;102599.56;;;7.41;100.00
71966;BME280;59836;52.132;5.442;2024-01-30T01:30:09;102590.59;;;7.41;100.00
71966;BME280;59836;52.132;5.442;2024-01-30T01:32:36;102587.91;;;7.41;100.00
71966;BME280;59836;52.132;5.442;2024-01-30T01:35:03;102587.91;;;7.41;100.00
71966;BME280;59836;52.132;5.442;2024-01-30T01:37:32;102588.94;;;7.39;100.00
71966;BME280;59836;52.132;5.442;2024-01-30T01:39:59;102583.75;;;7.38;100.00
71966;BME280;59836;52.132;5.442;2024-01-30T01:42:26;102584.59;;;7.38;100.00
71966;BME280;59836;52.132;5.442;2024-01-30T01:44:52;102583.53;;;7.39;100.00
71966;BME280;59836;52.132;5.442;2024-01-30T01:47:19;102587.91;;;7.41;100.00
71966;BME280;59836;52.132;5.442;2024-01-30T01:49:46;102590.59;;;7.41;100.00
71966;BME280;59836;52.132;5.442;2024-01-30T01:52:13;102593.31;;;7.41;100.00
71966;BME280;59836;52.132;5.442;2024-01-30T01:54:40;102596.00;;;7.41;100.00
71966;BME280;59836;52.132;5.442;2024-01-30T01:57:07;102583.53;;;7.39;100.00
71966;BME280;59836;52.132;5.442;2024-01-30T01:59:34;102587.09;;;7.40;100.00
71966;BME280;59836;52.132;5.442;2024-01-30T02:02:02;102587.50;;;7.37;100.00
71966;BME280;59836;52.132;5.442;2024-01-30T02:04:29;102586.66;;;7.36;100.00
71966;BME280;59836;52.132;5.442;2024-01-30T02:06:55;102588.53;;;7.36;100.00
71966;BME280;59836;52.132;5.442;2024-01-30T02:09:22;102589.34;;;7.36;100.00
71966;BME280;59836;52.132;5.442;2024-01-30T02:11:49;102585.00;;;7.35;100.00
71966;BME280;59836;52.132;5.442;2024-01-30T02:14:15;102573.38;;;7.35;100.00
71966;BME280;59836;52.132;5.442;2024-01-30T02:16:42;102579.59;;;7.35;100.00
71966;BME280;59836;52.132;5.442;2024-01-30T02:19:08;102574.41;;;7.34;100.00
71966;BME280;59836;52.132;5.442;2024-01-30T02:21:35;102581.66;;;7.33;100.00
71966;BME280;59836;52.132;5.442;2024-01-30T02:24:02;102573.56;;;7.33;100.00
71966;BME280;59836;52.132;5.442;2024-01-30T02:26:29;102574.41;;;7.34;100.00
71966;BME280;59836;52.132;5.442;2024-01-30T02:28:56;102580.00;;;7.32;100.00
71966;BME280;59836;52.132;5.442;2024-01-30T02:31:25;102581.66;;;7.33;100.00
71966;BME280;59836;52.132;5.442;2024-01-30T02:33:52;102587.06;;;7.33;100.00
71966;BME280;59836;52.132;5.442;2024-01-30T02:36:18;102587.91;;;7.34;100.00
71966;BME280;59836;52.132;5.442;2024-01-30T02:38:45;102587.91;;;7.34;100.00
71966;BME280;59836;52.132;5.442;2024-01-30T02:41:13;102588.72;;;7.34;100.00
71966;BME280;59836;52.132;5.442;2024-01-30T02:43:39;102586.25;;;7.33;100.00
71966;BME280;59836;52.132;5.442;2024-01-30T02:46:06;102580.00;;;7.32;100.00
71966;BME280;59836;52.132;5.442;2024-01-30T02:51:13;102582.06;;;7.30;100.00
71966;BME280;59836;52.132;5.442;2024-01-30T02:53:40;102573.34;;;7.28;100.00
71966;BME280;59836;52.132;5.442;2024-01-30T02:56:06;102561.28;;;7.24;100.00
71966;BME280;59836;52.132;5.442;2024-01-30T02:58:36;102570.25;;;7.24;100.00
71966;BME280;59836;52.132;5.442;2024-01-30T03:01:03;102561.28;;;7.24;100.00
71966;BME280;59836;52.132;5.442;2024-01-30T03:03:30;102555.91;;;7.24;100.00
71966;BME280;59836;52.132;5.442;2024-01-30T03:05:57;102558.59;;;7.24;100.00
71966;BME280;59836;52.132;5.442;2024-01-30T03:08:23;102554.25;;;7.23;100.00
71966;BME280;59836;52.132;5.442;2024-01-30T03:10:50;102560.47;;;7.23;100.00
71966;BME280;59836;52.132;5.442;2024-01-30T03:13:16;102555.91;;;7.24;100.00
71966;BME280;59836;52.132;5.442;2024-01-30T03:15:43;102547.81;;;7.24;100.00
71966;BME280;59836;52.132;5.442;2024-01-30T03:18:09;102545.09;;;7.24;100.00
71966;BME280;59836;52.132;5.442;2024-01-30T03:20:36;102533.28;;;7.25;100.00
71966;BME280;59836;52.132;5.442;2024-01-30T03:23:03;102535.97;;;7.25;100.00
71966;BME280;59836;52.132;5.442;2024-01-30T03:25:29;102525.19;;;7.25;100.00
71966;BME280;59836;52.132;5.442;2024-01-30T03:27:56;102529.75;;;7.24;100.00
71966;BME280;59836;52.132;5.442;2024-01-30T03:30:22;102541.38;;;7.25;100.00
71966;BME280;59836;52.132;5.442;2024-01-30T03:32:49;102537.63;;;7.26;100.00
71966;BME280;59836;52.132;5.442;2024-01-30T03:35:18;102545.72;;;7.26;100.00
71966;BME280;59836;52.132;5.442;2024-01-30T03:37:45;102539.53;;;7.26;100.00
71966;BME280;59836;52.132;5.442;2024-01-30T03:40:12;102535.97;;;7.25;100.00
71966;BME280;59836;52.132;5.442;2024-01-30T03:42:39;102530.56;;;7.25;100.00
71966;BME280;59836;52.132;5.442;2024-01-30T03:45:06;102534.94;;;7.26;100.00
71966;BME280;59836;52.132;5.442;2024-01-30T03:47:33;102535.97;;;7.25;100.00
71966;BME280;59836;52.132;5.442;2024-01-30T03:50:00;102524.13;;;7.26;100.00
71966;BME280;59836;52.132;5.442;2024-01-30T03:52:26;102524.13;;;7.26;100.00
71966;BME280;59836;52.132;5.442;2024-01-30T03:54:53;102516.91;;;7.27;100.00
71966;BME280;59836;52.132;5.442;2024-01-30T03:57:19;102515.00;;;7.27;100.00
71966;BME280;59836;52.132;5.442;2024-01-30T03:59:46;102523.53;;;7.31;100.00
71966;BME280;59836;52.132;5.442;2024-01-30T04:02:12;102512.75;;;7.31;100.00
71966;BME280;59836;52.132;5.442;2024-01-30T04:04:39;102518.97;;;7.31;100.00
71966;BME280;59836;52.132;5.442;2024-01-30T04:07:06;102518.97;;;7.31;100.00
71966;BME280;59836;52.132;5.442;2024-01-30T04:09:33;102526.03;;;7.32;100.00
71966;BME280;59836;52.132;5.442;2024-01-30T04:11:59;102519.59;;;7.33;100.00
71966;BME280;59836;52.132;5.442;2024-01-30T04:14:26;102522.28;;;7.33;100.00
71966;BME280;59836;52.132;5.442;2024-01-30T04:16:53;102523.94;;;7.34;100.00
71966;BME280;59836;52.132;5.442;2024-01-30T04:19:19;102535.38;;;7.36;100.00
71966;BME280;59836;52.132;5.442;2024-01-30T04:21:46;102534.34;;;7.37;100.00
71966;BME280;59836;52.132;5.442;2024-01-30T04:24:13;102524.38;;;7.38;100.00
71966;BME280;59836;52.132;5.442;2024-01-30T04:26:39;102519.81;;;7.38;100.00
71966;BME280;59836;52.132;5.442;2024-01-30T04:29:06;102523.13;;;7.41;100.00
71966;BME280;59836;52.132;5.442;2024-01-30T04:31:32;102508.59;;;7.42;100.00
71966;BME280;59836;52.132;5.442;2024-01-30T04:33:59;102510.25;;;7.43;100.00
71966;BME280;59836;52.132;5.442;2024-01-30T04:36:26;102505.66;;;7.43;100.00
71966;BME280;59836;52.132;5.442;2024-01-30T04:38:52;102502.78;;;7.45;100.00
71966;BME280;59836;52.132;5.442;2024-01-30T04:41:19;102497.38;;;7.45;100.00
71966;BME280;59836;52.132;5.442;2024-01-30T04:43:45;102495.06;;;7.48;100.00
71966;BME280;59836;52.132;5.442;2024-01-30T04:46:12;102493.22;;;7.49;100.00
71966;BME280;59836;52.132;5.442;2024-01-30T04:48:39;102485.75;;;7.51;100.00
71966;BME280;59836;52.132;5.442;2024-01-30T04:51:05;102494.66;;;7.51;100.00
71966;BME280;59836;52.132;5.442;2024-01-30T04:53:32;102492.81;;;7.52;100.00
71966;BME280;59836;52.132;5.442;2024-01-30T04:55:59;102492.81;;;7.52;100.00
71966;BME280;59836;52.132;5.442;2024-01-30T04:58:25;102494.47;;;7.53;100.00
71966;BME280;59836;52.132;5.442;2024-01-30T05:00:52;102496.13;;;7.54;100.00
71966;BME280;59836;52.132;5.442;2024-01-30T05:03:19;102498.84;;;7.54;100.00
71966;BME280;59836;52.132;5.442;2024-01-30T05:05:46;102505.28;;;7.53;100.00
71966;BME280;59836;52.132;5.442;2024-01-30T05:08:13;102494.47;;;7.53;100.00
71966;BME280;59836;52.132;5.442;2024-01-30T05:10:39;102506.94;;;7.54;100.00
71966;BME280;59836;52.132;5.442;2024-01-30T05:13:06;102497.78;;;7.55;100.00
71966;BME280;59836;52.132;5.442;2024-01-30T05:15:33;102500.50;;;7.55;100.00
71966;BME280;59836;52.132;5.442;2024-01-30T05:17:59;102500.28;;;7.57;100.00
71966;BME280;59836;52.132;5.442;2024-01-30T05:20:26;102504.22;;;7.54;100.00
71966;BME280;59836;52.132;5.442;2024-01-30T05:22:55;102504.84;;;7.56;100.00
71966;BME280;59836;52.132;5.442;2024-01-30T05:25:21;102499.47;;;7.56;100.00
71966;BME280;59836;52.132;5.442;2024-01-30T05:27:48;102501.13;;;7.57;100.00
71966;BME280;59836;52.132;5.442;2024-01-30T05:30:15;102488.25;;;7.59;100.00
71966;BME280;59836;52.132;5.442;2024-01-30T05:32:43;102484.50;;;7.60;100.00
71966;BME280;59836;52.132;5.442;2024-01-30T05:35:09;102478.06;;;7.61;100.00
71966;BME280;59836;52.132;5.442;2024-01-30T05:37:36;102471.63;;;7.62;100.00
71966;BME280;59836;52.132;5.442;2024-01-30T05:40:03;102469.75;;;7.63;100.00
71966;BME280;59836;52.132;5.442;2024-01-30T05:42:29;102474.09;;;7.64;100.00
71966;BME280;59836;52.132;5.442;2024-01-30T05:44:56;102480.34;;;7.64;100.00
71966;BME280;59836;52.132;5.442;2024-01-30T05:47:23;102502.75;;;7.65;100.00
71966;BME280;59836;52.132;5.442;2024-01-30T05:49:50;102491.16;;;7.64;100.00
71966;BME280;59836;52.132;5.442;2024-01-30T05:52:17;102490.09;;;7.65;100.00
71966;BME280;59836;52.132;5.442;2024-01-30T05:54:45;102482.00;;;7.65;100.00
71966;BME280;59836;52.132;5.442;2024-01-30T05:57:11;102485.75;;;7.64;100.00
71966;BME280;59836;52.132;5.442;2024-01-30T05:59:38;102493.84;;;7.64;100.00
71966;BME280;59836;52.132;5.442;2024-01-30T06:02:07;102495.50;;;7.65;100.00
71966;BME280;59836;52.132;5.442;2024-01-30T06:04:34;102492.81;;;7.65;100.00
71966;BME280;59836;52.132;5.442;2024-01-30T06:07:01;102499.88;;;7.66;100.00
71966;BME280;59836;52.132;5.442;2024-01-30T06:09:28;102494.47;;;7.66;100.00
71966;BME280;59836;52.132;5.442;2024-01-30T06:11:55;102500.69;;;7.67;100.00
71966;BME280;59836;52.132;5.442;2024-01-30T06:14:22;102499.03;;;7.66;100.00
71966;BME280;59836;52.132;5.442;2024-01-30T06:16:49;102499.88;;;7.66;100.00
71966;BME280;59836;52.132;5.442;2024-01-30T06:19:15;102498.22;;;7.65;100.00
71966;BME280;59836;52.132;5.442;2024-01-30T06:21:42;102493.44;;;7.67;100.00
71966;BME280;59836;52.132;5.442;2024-01-30T06:24:09;102504.22;;;7.67;100.00
71966;BME280;59836;52.132;5.442;2024-01-30T06:26:35;102489.88;;;7.67;100.00
71966;BME280;59836;52.132;5.442;2024-01-30T06:29:02;102492.38;;;7.68;100.00
71966;BME280;59836;52.132;5.442;2024-01-30T06:31:28;102479.69;;;7.69;100.00
71966;BME280;59836;52.132;5.442;2024-01-30T06:33:55;102505.03;;;7.68;100.00
71966;BME280;59836;52.132;5.442;2024-01-30T06:36:22;102504.84;;;7.70;100.00
71966;BME280;59836;52.132;5.442;2024-01-30T06:38:48;102499.44;;;7.70;100.00
71966;BME280;59836;52.132;5.442;2024-01-30T06:41:15;102504.84;;;7.70;100.00
71966;BME280;59836;52.132;5.442;2024-01-30T06:43:42;102505.66;;;7.70;100.00
71966;BME280;59836;52.132;5.442;2024-01-30T06:46:08;102511.06;;;7.70;100.00
71966;BME280;59836;52.132;5.442;2024-01-30T06:48:35;102501.13;;;7.71;100.00
71966;BME280;59836;52.132;5.442;2024-01-30T06:51:01;102516.47;;;7.70;100.00
71966;BME280;59836;52.132;5.442;2024-01-30T06:53:28;102513.56;;;7.72;100.00
71966;BME280;59836;52.132;5.442;2024-01-30T06:55:55;102499.84;;;7.73;100.00
71966;BME280;59836;52.132;5.442;2024-01-30T06:58:21;102516.91;;;7.74;100.00
71966;BME280;59836;52.132;5.442;2024-01-30T07:00:48;102511.50;;;7.74;100.00
71966;BME280;59836;52.132;5.442;2024-01-30T07:03:15;102511.50;;;7.74;100.00
71966;BME280;59836;52.132;5.442;2024-01-30T07:05:41;102516.91;;;7.74;100.00
71966;BME280;59836;52.132;5.442;2024-01-30T07:08:08;102509.63;;;7.74;100.00
71966;BME280;59836;52.132;5.442;2024-01-30T07:10:34;102504.44;;;7.73;100.00
71966;BME280;59836;52.132;5.442;2024-01-30T07:13:01;102505.06;;;7.75;100.00
71966;BME280;59836;52.132;5.442;2024-01-30T07:15:28;102506.09;;;7.74;100.00
71966;BME280;59836;52.132;5.442;2024-01-30T07:17:55;102508.56;;;7.75;100.00
71966;BME280;59836;52.132;5.442;2024-01-30T07:20:21;102513.16;;;7.75;100.00
71966;BME280;59836;52.132;5.442;2024-01-30T07:22:48;102513.16;;;7.75;100.00
71966;BME280;59836;52.132;5.442;2024-01-30T07:25:15;102524.78;;;7.75;100.00
71966;BME280;59836;52.132;5.442;2024-01-30T07:27:43;102521.88;;;7.77;100.00
71966;BME280;59836;52.132;5.442;2024-01-30T07:30:10;102520.22;;;7.76;100.00
71966;BME280;59836;52.132;5.442;2024-01-30T07:32:37;102530.63;;;7.79;100.00
71966;BME280;59836;52.132;5.442;2024-01-30T07:35:03;102534.34;;;7.78;100.00
71966;BME280;59836;52.132;5.442;2024-01-30T07:37:34;102538.72;;;7.79;100.00
71966;BME280;59836;52.132;5.442;2024-01-30T07:40:02;102537.69;;;7.80;100.00
71966;BME280;59836;52.132;5.442;2024-01-30T07:42:30;102540.38;;;7.80;100.00
71966;BME280;59836;52.132;5.442;2024-01-30T07:44:56;102539.34;;;7.81;100.00
71966;BME280;59836;52.132;5.442;2024-01-30T07:47:23;102538.28;;;7.82;100.00
71966;BME280;59836;52.132;5.442;2024-01-30T07:49:50;102538.06;;;7.83;100.00
71966;BME280;59836;52.132;5.442;2024-01-30T07:52:17;102551.38;;;7.85;100.00
71966;BME280;59836;52.132;5.442;2024-01-30T07:54:43;102547.66;;;7.86;100.00
71966;BME280;59836;52.132;5.442;2024-01-30T07:57:10;102548.47;;;7.87;100.00
71966;BME280;59836;52.132;5.442;2024-01-30T07:59:37;102553.66;;;7.88;100.00
71966;BME280;59836;52.132;5.442;2024-01-30T08:02:03;102552.41;;;7.91;100.00
71966;BME280;59836;52.132;5.442;2024-01-30T08:04:30;102553.25;;;7.91;100.00
71966;BME280;59836;52.132;5.442;2024-01-30T08:06:57;102561.97;;;7.93;100.00
71966;BME280;59836;52.132;5.442;2024-01-30T08:09:24;102560.94;;;7.94;100.00
71966;BME280;59836;52.132;5.442;2024-01-30T08:11:50;102555.09;;;7.97;100.00
71966;BME280;59836;52.132;5.442;2024-01-30T08:14:17;102551.34;;;7.98;100.00
71966;BME280;59836;52.132;5.442;2024-01-30T08:16:44;102556.34;;;8.02;100.00
71966;BME280;59836;52.132;5.442;2024-01-30T08:19:11;102552.59;;;8.03;100.00
71966;BME280;59836;52.132;5.442;2024-01-30T08:21:37;102555.91;;;8.05;100.00
71966;BME280;59836;52.132;5.442;2024-01-30T08:24:06;102550.94;;;8.08;100.00
71966;BME280;59836;52.132;5.442;2024-01-30T08:26:33;102553.41;;;8.10;100.00
71966;BME280;59836;52.132;5.442;2024-01-30T08:29:01;102551.31;;;8.12;100.00
71966;BME280;59836;52.132;5.442;2024-01-30T08:31:28;102556.31;;;8.15;100.00
71966;BME280;59836;52.132;5.442;2024-01-30T08:33:55;102556.75;;;8.19;100.00
71966;BME280;59836;52.132;5.442;2024-01-30T08:36:22;102557.34;;;8.21;100.00
71966;BME280;59836;52.132;5.442;2024-01-30T08:38:49;102550.69;;;8.23;100.00
71966;BME280;59836;52.132;5.442;2024-01-30T08:41:15;102556.28;;;8.28;100.00
71966;BME280;59836;52.132;5.442;2024-01-30T08:43:42;102550.25;;;8.33;100.00
71966;BME280;59836;52.132;5.442;2024-01-30T08:46:08;102554.41;;;8.36;100.00
71966;BME280;59836;52.132;5.442;2024-01-30T08:48:35;102551.50;;;8.37;100.00
71966;BME280;59836;52.132;5.442;2024-01-30T08:51:03;102560.00;;;8.41;100.00
71966;BME280;59836;52.132;5.442;2024-01-30T08:53:29;102552.50;;;8.43;100.00
71966;BME280;59836;52.132;5.442;2024-01-30T08:55:56;102550.22;;;8.47;100.00
71966;BME280;59836;52.132;5.442;2024-01-30T08:58:25;102556.69;;;8.52;100.00
71966;BME280;59836;52.132;5.442;2024-01-30T09:00:52;102556.25;;;8.55;100.00
71966;BME280;59836;52.132;5.442;2024-01-30T09:03:19;102566.41;;;8.60;100.00
71966;BME280;59836;52.132;5.442;2024-01-30T09:05:46;102566.22;;;8.62;100.00
71966;BME280;59836;52.132;5.442;2024-01-30T09:08:12;102557.44;;;8.66;100.00
71966;BME280;59836;52.132;5.442;2024-01-30T09:10:39;102556.81;;;8.71;100.00
71966;BME280;59836;52.132;5.442;2024-01-30T09:13:05;102565.13;;;8.76;100.00
71966;BME280;59836;52.132;5.442;2024-01-30T09:15:32;102564.03;;;8.84;100.00
71966;BME280;59836;52.132;5.442;2024-01-30T09:17:59;102563.59;;;8.94;100.00
71966;BME280;59836;52.132;5.442;2024-01-30T09:20:25;102560.03;;;9.00;100.00
71966;BME280;59836;52.132;5.442;2024-01-30T09:22:52;102571.00;;;9.05;100.00
71966;BME280;59836;52.132;5.442;2024-01-30T09:25:18;102574.75;;;9.11;100.00
71966;BME280;59836;52.132;5.442;2024-01-30T09:27:46;102567.59;;;9.16;100.00
71966;BME280;59836;52.132;5.442;2024-01-30T09:30:13;102578.22;;;9.18;100.00
71966;BME280;59836;52.132;5.442;2024-01-30T09:32:40;102574.88;;;9.23;100.00
71966;BME280;59836;52.132;5.442;2024-01-30T09:35:07;102580.06;;;9.24;100.00
71966;BME280;59836;52.132;5.442;2024-01-30T09:37:34;102570.69;;;9.27;100.00
71966;BME280;59836;52.132;5.442;2024-01-30T09:40:01;102575.03;;;9.28;100.00
71966;BME280;59836;52.132;5.442;2024-01-30T09:42:35;102575.66;;;9.30;100.00
71966;BME280;59836;52.132;5.442;2024-01-30T09:45:05;102582.28;;;9.34;100.00
71966;BME280;59836;52.132;5.442;2024-01-30T09:47:41;102579.59;;;9.34;100.00
71966;BME280;59836;52.132;5.442;2024-01-30T09:50:13;102593.75;;;9.36;100.00
71966;BME280;59836;52.132;5.442;2024-01-30T09:52:40;102586.22;;;9.38;100.00
71966;BME280;59836;52.132;5.442;2024-01-30T09:55:09;102594.59;;;9.37;100.00
71966;BME280;59836;52.132;5.442;2024-01-30T09:57:35;102593.75;;;9.36;100.00
71966;BME280;59836;52.132;5.442;2024-01-30T10:00:03;102594.59;;;9.37;100.00
71966;BME280;59836;52.132;5.442;2024-01-30T10:02:33;102597.06;;;9.38;100.00
71966;BME280;59836;52.132;5.442;2024-01-30T10:05:00;102602.47;;;9.38;100.00
71966;BME280;59836;52.132;5.442;2024-01-30T10:07:27;102598.72;;;9.39;100.00
71966;BME280;59836;52.132;5.442;2024-01-30T10:09:54;102594.97;;;9.40;100.00
71966;BME280;59836;52.132;5.442;2024-01-30T10:12:23;102595.81;;;9.41;100.00
71966;BME280;59836;52.132;5.442;2024-01-30T10:14:52;102592.88;;;9.42;100.00
71966;BME280;59836;52.132;5.442;2024-01-30T10:17:18;102597.84;;;9.45;100.00
71966;BME280;59836;52.132;5.442;2024-01-30T10:19:59;102597.03;;;9.45;100.00
71966;BME280;59836;52.132;5.442;2024-01-30T10:22:26;102598.47;;;9.48;100.00
71966;BME280;59836;52.132;5.442;2024-01-30T10:24:53;102594.50;;;9.50;100.00
71966;BME280;59836;52.132;5.442;2024-01-30T10:27:25;102600.28;;;9.54;100.00
71966;BME280;59836;52.132;5.442;2024-01-30T10:29:52;102590.88;;;9.56;100.00
71966;BME280;59836;52.132;5.442;2024-01-30T10:32:19;102592.09;;;9.60;100.00
71966;BME280;59836;52.132;5.442;2024-01-30T10:34:46;102587.72;;;9.66;100.00
71966;BME280;59836;52.132;5.442;2024-01-30T10:37:13;102599.75;;;9.70;100.00
71966;BME280;59836;52.132;5.442;2024-01-30T10:39:44;102607.66;;;9.72;100.00
71966;BME280;59836;52.132;5.442;2024-01-30T10:42:13;102600.97;;;9.74;100.00
71966;BME280;59836;52.132;5.442;2024-01-30T10:44:50;102578.03;;;9.77;100.00
71966;BME280;59836;52.132;5.442;2024-01-30T10:47:26;102594.69;;;9.81;100.00
71966;BME280;59836;52.132;5.442;2024-01-30T10:49:54;102598.00;;;9.83;100.00
71966;BME280;59836;52.132;5.442;2024-01-30T10:52:23;102601.75;;;9.82;100.00
71966;BME280;59836;52.132;5.442;2024-01-30T10:54:54;102600.09;;;9.81;100.00
71966;BME280;59836;52.132;5.442;2024-01-30T10:57:31;102605.91;;;9.84;100.00
71966;BME280;59836;52.132;5.442;2024-01-30T11:00:01;102614.03;;;9.84;100.00
71966;BME280;59836;52.132;5.442;2024-01-30T11:02:32;102599.66;;;9.84;100.00
71966;BME280;59836;52.132;5.442;2024-01-30T11:04:59;102610.72;;;9.82;100.00
71966;BME280;59836;52.132;5.442;2024-01-30T11:07:28;102610.50;;;9.84;100.00
71966;BME280;59836;52.132;5.442;2024-01-30T11:12:28;102618.84;;;9.82;100.00
71966;BME280;59836;52.132;5.442;2024-01-30T11:15:07;102607.78;;;9.84;100.00
71966;BME280;59836;52.132;5.442;2024-01-30T11:20:16;102615.66;;;9.92;100.00
71966;BME280;59836;52.132;5.442;2024-01-30T11:22:45;102627.91;;;9.95;100.00
71966;BME280;59836;52.132;5.442;2024-01-30T11:25:16;102619.56;;;9.96;100.00
71966;BME280;59836;52.132;5.442;2024-01-30T11:27:44;102607.69;;;9.97;100.00
71966;BME280;59836;52.132;5.442;2024-01-30T11:35:40;102631.22;;;9.97;100.00
71966;BME280;59836;52.132;5.442;2024-01-30T11:38:10;102631.47;;;9.95;100.00
71966;BME280;59836;52.132;5.442;2024-01-30T11:40:38;102634.19;;;9.95;100.00
71966;BME280;59836;52.132;5.442;2024-01-30T11:43:07;102636.28;;;9.93;100.00
71966;BME280;59836;52.132;5.442;2024-01-30T11:45:35;102645.91;;;9.89;100.00
71966;BME280;59836;52.132;5.442;2024-01-30T11:48:03;102646.34;;;9.86;100.00
71966;BME280;59836;52.132;5.442;2024-01-30T11:50:34;102644.69;;;9.85;100.00
71966;BME280;59836;52.132;5.442;2024-01-30T11:53:02;102639.69;;;9.82;100.00
71966;BME280;59836;52.132;5.442;2024-01-30T11:55:29;102655.13;;;9.81;100.00
71966;BME280;59836;52.132;5.442;2024-01-30T11:58:00;102645.16;;;9.75;100.00
71966;BME280;59836;52.132;5.442;2024-01-30T12:00:27;102643.72;;;9.72;100.00
71966;BME280;59836;52.132;5.442;2024-01-30T12:02:56;102648.53;;;9.70;100.00
71966;BME280;59836;52.132;5.442;2024-01-30T12:05:24;102653.94;;;9.70;100.00
71966;BME280;59836;52.132;5.442;2024-01-30T12:07:51;102647.69;;;9.70;100.00
71966;BME280;59836;52.132;5.442;2024-01-30T12:10:18;102654.16;;;9.69;100.00
71966;BME280;59836;52.132;5.442;2024-01-30T12:12:46;102659.38;;;9.70;100.00
71966;BME280;59836;52.132;5.442;2024-01-30T12:15:14;102662.28;;;9.69;100.00
71966;BME280;59836;52.132;5.442;2024-01-30T12:17:41;102676.06;;;9.67;100.00
71966;BME280;59836;52.132;5.442;2024-01-30T12:20:09;102665.44;;;9.66;100.00
71966;BME280;59836;52.132;5.442;2024-01-30T12:22:37;102661.06;;;9.65;100.00
71966;BME280;59836;52.132;5.442;2024-01-30T12:25:12;102668.38;;;9.64;100.00
71966;BME280;59836;52.132;5.442;2024-01-30T12:27:42;102679.63;;;9.61;100.00
71966;BME280;59836;52.132;5.442;2024-01-30T12:30:10;102688.19;;;9.58;100.00
71966;BME280;59836;52.132;5.442;2024-01-30T12:32:40;102695.31;;;9.52;100.00
71966;BME280;59836;52.132;5.442;2024-01-30T12:35:10;102701.38;;;9.48;100.00
71966;BME280;59836;52.132;5.442;2024-01-30T12:37:42;102706.19;;;9.45;100.00
71966;BME280;59836;52.132;5.442;2024-01-30T12:40:10;102713.69;;;9.43;100.00
71966;BME280;59836;52.132;5.442;2024-01-30T12:42:37;102721.19;;;9.41;100.00
71966;BME280;59836;52.132;5.442;2024-01-30T12:45:05;102703.53;;;9.39;100.00
71966;BME280;59836;52.132;5.442;2024-01-30T12:47:32;102714.97;;;9.34;100.00
71966;BME280;59836;52.132;5.442;2024-01-30T12:49:59;102718.72;;;9.33;100.00
71966;BME280;59836;52.132;5.442;2024-01-30T12:52:26;102705.63;;;9.30;100.00
71966;BME280;59836;52.132;5.442;2024-01-30T12:54:53;102707.50;;;9.29;100.00
71966;BME280;59836;52.132;5.442;2024-01-30T12:57:19;102714.59;;;9.30;100.00
71966;BME280;59836;52.132;5.442;2024-01-30T12:59:46;102705.84;;;9.28;100.00
71966;BME280;59836;52.132;5.442;2024-01-30T13:02:14;102711.25;;;9.28;100.00
71966;BME280;59836;52.132;5.442;2024-01-30T13:04:42;102710.41;;;9.28;100.00